<?xml version="1.0" encoding="UTF-8" standalone="no" ?>
<gpx xmlns="http://www.topografix.com/GPX/1/1" xmlns:xsi="http://www.w3.org/2001/XMLSchema-instance" xsi:schemaLocation="http://www.topografix.com/GPX/1/1 http://www.topografix.com/GPX/1/1/gpx.xsd" version="1.1" creator="VisuGPX - https://www.visugpx.com">
  <metadata>
    <name>Neuvicoise 2024</name>
    <desc><![CDATA[Parcours créé sur Trace de Trail]]></desc>
  </metadata>
  <trk>
    <name><![CDATA[Boucle d'Areil Neuvicoise 2024 sur TraceDeTrail.fr]]></name>
    <extensions>
      <line xmlns="http://www.topografix.com/GPX/gpx_style/0/2">
        <color>00FF00</color>
        <width>4</width>
      </line>
    </extensions>
    <trkseg>
      <trkpt lat="45.44471" lon="2.24868">
        <ele>659</ele>
        <time>2024-09-13T05:05:16+00:00</time>
      </trkpt>
      <trkpt lat="45.4448" lon="2.24825">
        <ele>660</ele>
        <time>2024-09-13T05:05:19+00:00</time>
      </trkpt>
      <trkpt lat="45.44491" lon="2.24781">
        <ele>662</ele>
        <time>2024-09-13T05:05:22+00:00</time>
      </trkpt>
      <trkpt lat="45.44501" lon="2.24751">
        <ele>661</ele>
        <time>2024-09-13T05:05:25+00:00</time>
      </trkpt>
      <trkpt lat="45.4452" lon="2.24726">
        <ele>661</ele>
        <time>2024-09-13T05:05:28+00:00</time>
      </trkpt>
      <trkpt lat="45.44547" lon="2.24677">
        <ele>663</ele>
        <time>2024-09-13T05:05:31+00:00</time>
      </trkpt>
      <trkpt lat="45.44549" lon="2.24632">
        <ele>665</ele>
        <time>2024-09-13T05:05:34+00:00</time>
      </trkpt>
      <trkpt lat="45.44548" lon="2.24587">
        <ele>669</ele>
        <time>2024-09-13T05:05:37+00:00</time>
      </trkpt>
      <trkpt lat="45.44541" lon="2.24554">
        <ele>669</ele>
        <time>2024-09-13T05:05:40+00:00</time>
      </trkpt>
      <trkpt lat="45.44537" lon="2.24517">
        <ele>660</ele>
        <time>2024-09-13T05:05:43+00:00</time>
      </trkpt>
      <trkpt lat="45.4455" lon="2.24475">
        <ele>664</ele>
        <time>2024-09-13T05:05:46+00:00</time>
      </trkpt>
      <trkpt lat="45.44574" lon="2.24448">
        <ele>668</ele>
        <time>2024-09-13T05:05:49+00:00</time>
      </trkpt>
      <trkpt lat="45.44585" lon="2.24396">
        <ele>673</ele>
        <time>2024-09-13T05:05:52+00:00</time>
      </trkpt>
      <trkpt lat="45.44584" lon="2.24341">
        <ele>682</ele>
        <time>2024-09-13T05:05:55+00:00</time>
      </trkpt>
      <trkpt lat="45.44582" lon="2.24306">
        <ele>685</ele>
        <time>2024-09-13T05:05:58+00:00</time>
      </trkpt>
      <trkpt lat="45.44579" lon="2.24248">
        <ele>687.4</ele>
        <time>2024-09-13T05:06:01+00:00</time>
      </trkpt>
      <trkpt lat="45.44614" lon="2.24261">
        <ele>694</ele>
        <time>2024-09-13T05:06:04+00:00</time>
      </trkpt>
      <trkpt lat="45.44644" lon="2.2424">
        <ele>697</ele>
        <time>2024-09-13T05:06:07+00:00</time>
      </trkpt>
      <trkpt lat="45.44673" lon="2.24242">
        <ele>697</ele>
        <time>2024-09-13T05:06:10+00:00</time>
      </trkpt>
      <trkpt lat="45.44701" lon="2.24272">
        <ele>697</ele>
        <time>2024-09-13T05:06:13+00:00</time>
      </trkpt>
      <trkpt lat="45.44737" lon="2.24289">
        <ele>692.9</ele>
        <time>2024-09-13T05:06:16+00:00</time>
      </trkpt>
      <trkpt lat="45.4475" lon="2.24324">
        <ele>700</ele>
        <time>2024-09-13T05:06:19+00:00</time>
      </trkpt>
      <trkpt lat="45.44777" lon="2.24353">
        <ele>698</ele>
        <time>2024-09-13T05:06:22+00:00</time>
      </trkpt>
      <trkpt lat="45.4479" lon="2.24387">
        <ele>696</ele>
        <time>2024-09-13T05:06:25+00:00</time>
      </trkpt>
      <trkpt lat="45.44808" lon="2.24435">
        <ele>691</ele>
        <time>2024-09-13T05:06:28+00:00</time>
      </trkpt>
      <trkpt lat="45.44829" lon="2.24487">
        <ele>684.1</ele>
        <time>2024-09-13T05:06:31+00:00</time>
      </trkpt>
      <trkpt lat="45.44836" lon="2.24518">
        <ele>687</ele>
        <time>2024-09-13T05:06:34+00:00</time>
      </trkpt>
      <trkpt lat="45.44883" lon="2.24548">
        <ele>681.3</ele>
        <time>2024-09-13T05:06:37+00:00</time>
      </trkpt>
      <trkpt lat="45.44902" lon="2.24586">
        <ele>680.1</ele>
        <time>2024-09-13T05:06:40+00:00</time>
      </trkpt>
      <trkpt lat="45.44913" lon="2.24614">
        <ele>680.1</ele>
        <time>2024-09-13T05:06:43+00:00</time>
      </trkpt>
      <trkpt lat="45.44924" lon="2.24652">
        <ele>686</ele>
        <time>2024-09-13T05:06:46+00:00</time>
      </trkpt>
      <trkpt lat="45.44954" lon="2.24686">
        <ele>683</ele>
        <time>2024-09-13T05:06:49+00:00</time>
      </trkpt>
      <trkpt lat="45.44984" lon="2.2472">
        <ele>681</ele>
        <time>2024-09-13T05:06:52+00:00</time>
      </trkpt>
      <trkpt lat="45.45014" lon="2.24755">
        <ele>680</ele>
        <time>2024-09-13T05:06:55+00:00</time>
      </trkpt>
      <trkpt lat="45.45034" lon="2.24777">
        <ele>679</ele>
        <time>2024-09-13T05:06:58+00:00</time>
      </trkpt>
      <trkpt lat="45.45093" lon="2.24773">
        <ele>671.5</ele>
        <time>2024-09-13T05:07:01+00:00</time>
      </trkpt>
      <trkpt lat="45.45151" lon="2.24801">
        <ele>663.3</ele>
        <time>2024-09-13T05:07:04+00:00</time>
      </trkpt>
      <trkpt lat="45.45159" lon="2.24844">
        <ele>658.2</ele>
        <time>2024-09-13T05:07:07+00:00</time>
      </trkpt>
      <trkpt lat="45.45154" lon="2.24878">
        <ele>653.3</ele>
        <time>2024-09-13T05:07:10+00:00</time>
      </trkpt>
      <trkpt lat="45.45164" lon="2.24896">
        <ele>651</ele>
        <time>2024-09-13T05:07:13+00:00</time>
      </trkpt>
      <trkpt lat="45.45195" lon="2.24917">
        <ele>634</ele>
        <time>2024-09-13T05:07:16+00:00</time>
      </trkpt>
      <trkpt lat="45.45219" lon="2.24932">
        <ele>632</ele>
        <time>2024-09-13T05:07:19+00:00</time>
      </trkpt>
      <trkpt lat="45.45247" lon="2.24951">
        <ele>630</ele>
        <time>2024-09-13T05:07:22+00:00</time>
      </trkpt>
      <trkpt lat="45.45256" lon="2.2499">
        <ele>620</ele>
        <time>2024-09-13T05:07:25+00:00</time>
      </trkpt>
      <trkpt lat="45.45268" lon="2.25025">
        <ele>628.1</ele>
        <time>2024-09-13T05:07:28+00:00</time>
      </trkpt>
      <trkpt lat="45.45278" lon="2.25037">
        <ele>631.3</ele>
        <time>2024-09-13T05:07:31+00:00</time>
      </trkpt>
      <trkpt lat="45.45301" lon="2.25047">
        <ele>616</ele>
        <time>2024-09-13T05:07:34+00:00</time>
      </trkpt>
      <trkpt lat="45.45326" lon="2.25027">
        <ele>614</ele>
        <time>2024-09-13T05:07:37+00:00</time>
      </trkpt>
      <trkpt lat="45.45367" lon="2.24994">
        <ele>614</ele>
        <time>2024-09-13T05:07:40+00:00</time>
      </trkpt>
      <trkpt lat="45.45397" lon="2.24977">
        <ele>614</ele>
        <time>2024-09-13T05:07:43+00:00</time>
      </trkpt>
      <trkpt lat="45.45427" lon="2.24959">
        <ele>617</ele>
        <time>2024-09-13T05:07:46+00:00</time>
      </trkpt>
      <trkpt lat="45.45463" lon="2.24938">
        <ele>620</ele>
        <time>2024-09-13T05:07:49+00:00</time>
      </trkpt>
      <trkpt lat="45.45477" lon="2.2491">
        <ele>623</ele>
        <time>2024-09-13T05:07:52+00:00</time>
      </trkpt>
      <trkpt lat="45.45492" lon="2.24912">
        <ele>627.3</ele>
        <time>2024-09-13T05:07:55+00:00</time>
      </trkpt>
      <trkpt lat="45.45505" lon="2.24932">
        <ele>622</ele>
        <time>2024-09-13T05:07:58+00:00</time>
      </trkpt>
      <trkpt lat="45.45523" lon="2.2495">
        <ele>623</ele>
        <time>2024-09-13T05:08:01+00:00</time>
      </trkpt>
      <trkpt lat="45.45551" lon="2.24953">
        <ele>631</ele>
        <time>2024-09-13T05:08:04+00:00</time>
      </trkpt>
      <trkpt lat="45.45587" lon="2.24956">
        <ele>637</ele>
        <time>2024-09-13T05:08:07+00:00</time>
      </trkpt>
      <trkpt lat="45.45623" lon="2.24959">
        <ele>642</ele>
        <time>2024-09-13T05:08:10+00:00</time>
      </trkpt>
      <trkpt lat="45.457" lon="2.24982">
        <ele>625.6</ele>
        <time>2024-09-13T05:08:13+00:00</time>
      </trkpt>
      <trkpt lat="45.4575" lon="2.24962">
        <ele>621.9</ele>
        <time>2024-09-13T05:08:16+00:00</time>
      </trkpt>
      <trkpt lat="45.4578" lon="2.24988">
        <ele>615.3</ele>
        <time>2024-09-13T05:08:19+00:00</time>
      </trkpt>
      <trkpt lat="45.4581" lon="2.2494">
        <ele>616</ele>
        <time>2024-09-13T05:08:22+00:00</time>
      </trkpt>
      <trkpt lat="45.4581" lon="2.24908">
        <ele>619.1</ele>
        <time>2024-09-13T05:08:25+00:00</time>
      </trkpt>
      <trkpt lat="45.45809" lon="2.24856">
        <ele>635</ele>
        <time>2024-09-13T05:08:31+00:00</time>
      </trkpt>
      <trkpt lat="45.45834" lon="2.24825">
        <ele>630</ele>
        <time>2024-09-13T05:08:34+00:00</time>
      </trkpt>
      <trkpt lat="45.45881" lon="2.24834">
        <ele>621.8</ele>
        <time>2024-09-13T05:08:37+00:00</time>
      </trkpt>
      <trkpt lat="45.45906" lon="2.24783">
        <ele>627.1</ele>
        <time>2024-09-13T05:08:40+00:00</time>
      </trkpt>
      <trkpt lat="45.45915" lon="2.24753">
        <ele>631</ele>
        <time>2024-09-13T05:08:43+00:00</time>
      </trkpt>
      <trkpt lat="45.45938" lon="2.2473">
        <ele>629</ele>
        <time>2024-09-13T05:08:46+00:00</time>
      </trkpt>
      <trkpt lat="45.45974" lon="2.24696">
        <ele>628</ele>
        <time>2024-09-13T05:08:49+00:00</time>
      </trkpt>
      <trkpt lat="45.46003" lon="2.24684">
        <ele>625</ele>
        <time>2024-09-13T05:08:52+00:00</time>
      </trkpt>
      <trkpt lat="45.46037" lon="2.24674">
        <ele>623</ele>
        <time>2024-09-13T05:08:55+00:00</time>
      </trkpt>
      <trkpt lat="45.46066" lon="2.2467">
        <ele>622</ele>
        <time>2024-09-13T05:08:58+00:00</time>
      </trkpt>
      <trkpt lat="45.46112" lon="2.24664">
        <ele>619</ele>
        <time>2024-09-13T05:09:01+00:00</time>
      </trkpt>
      <trkpt lat="45.46125" lon="2.24632">
        <ele>618</ele>
        <time>2024-09-13T05:09:04+00:00</time>
      </trkpt>
      <trkpt lat="45.46141" lon="2.24592">
        <ele>618</ele>
        <time>2024-09-13T05:09:07+00:00</time>
      </trkpt>
      <trkpt lat="45.46152" lon="2.24555">
        <ele>621</ele>
        <time>2024-09-13T05:09:10+00:00</time>
      </trkpt>
      <trkpt lat="45.46166" lon="2.24503">
        <ele>634</ele>
        <time>2024-09-13T05:09:13+00:00</time>
      </trkpt>
      <trkpt lat="45.46177" lon="2.2444">
        <ele>645</ele>
        <time>2024-09-13T05:09:16+00:00</time>
      </trkpt>
      <trkpt lat="45.46186" lon="2.24383">
        <ele>646</ele>
        <time>2024-09-13T05:09:19+00:00</time>
      </trkpt>
      <trkpt lat="45.46189" lon="2.24343">
        <ele>652</ele>
        <time>2024-09-13T05:09:22+00:00</time>
      </trkpt>
      <trkpt lat="45.46194" lon="2.24282">
        <ele>663</ele>
        <time>2024-09-13T05:09:25+00:00</time>
      </trkpt>
      <trkpt lat="45.46192" lon="2.24225">
        <ele>665</ele>
        <time>2024-09-13T05:09:28+00:00</time>
      </trkpt>
      <trkpt lat="45.46169" lon="2.24204">
        <ele>670</ele>
        <time>2024-09-13T05:09:31+00:00</time>
      </trkpt>
      <trkpt lat="45.46138" lon="2.24175">
        <ele>669</ele>
        <time>2024-09-13T05:09:34+00:00</time>
      </trkpt>
      <trkpt lat="45.46115" lon="2.24155">
        <ele>669</ele>
        <time>2024-09-13T05:09:37+00:00</time>
      </trkpt>
      <trkpt lat="45.46087" lon="2.2413">
        <ele>673</ele>
        <time>2024-09-13T05:09:40+00:00</time>
      </trkpt>
      <trkpt lat="45.46065" lon="2.24111">
        <ele>676</ele>
        <time>2024-09-13T05:09:43+00:00</time>
      </trkpt>
      <trkpt lat="45.4604" lon="2.2409">
        <ele>677</ele>
        <time>2024-09-13T05:09:46+00:00</time>
      </trkpt>
      <trkpt lat="45.46023" lon="2.24064">
        <ele>678</ele>
        <time>2024-09-13T05:09:49+00:00</time>
      </trkpt>
      <trkpt lat="45.46002" lon="2.24033">
        <ele>680</ele>
        <time>2024-09-13T05:09:52+00:00</time>
      </trkpt>
      <trkpt lat="45.45986" lon="2.24">
        <ele>683</ele>
        <time>2024-09-13T05:09:55+00:00</time>
      </trkpt>
      <trkpt lat="45.45978" lon="2.23959">
        <ele>683</ele>
        <time>2024-09-13T05:09:58+00:00</time>
      </trkpt>
      <trkpt lat="45.45971" lon="2.23925">
        <ele>683</ele>
        <time>2024-09-13T05:10:01+00:00</time>
      </trkpt>
      <trkpt lat="45.45964" lon="2.23887">
        <ele>683</ele>
        <time>2024-09-13T05:10:04+00:00</time>
      </trkpt>
      <trkpt lat="45.45948" lon="2.23859">
        <ele>687</ele>
        <time>2024-09-13T05:10:07+00:00</time>
      </trkpt>
      <trkpt lat="45.4593" lon="2.23827">
        <ele>692</ele>
        <time>2024-09-13T05:10:10+00:00</time>
      </trkpt>
      <trkpt lat="45.45915" lon="2.23883">
        <ele>693</ele>
        <time>2024-09-13T05:10:13+00:00</time>
      </trkpt>
      <trkpt lat="45.45911" lon="2.23918">
        <ele>694</ele>
        <time>2024-09-13T05:10:16+00:00</time>
      </trkpt>
      <trkpt lat="45.45907" lon="2.23959">
        <ele>696</ele>
        <time>2024-09-13T05:10:19+00:00</time>
      </trkpt>
      <trkpt lat="45.45909" lon="2.24004">
        <ele>698</ele>
        <time>2024-09-13T05:10:22+00:00</time>
      </trkpt>
      <trkpt lat="45.4591" lon="2.24041">
        <ele>700</ele>
        <time>2024-09-13T05:10:25+00:00</time>
      </trkpt>
      <trkpt lat="45.45911" lon="2.2409">
        <ele>707</ele>
        <time>2024-09-13T05:10:28+00:00</time>
      </trkpt>
      <trkpt lat="45.45854" lon="2.24124">
        <ele>706</ele>
        <time>2024-09-13T05:10:31+00:00</time>
      </trkpt>
      <trkpt lat="45.45828" lon="2.24129">
        <ele>705</ele>
        <time>2024-09-13T05:10:34+00:00</time>
      </trkpt>
      <trkpt lat="45.45795" lon="2.24135">
        <ele>704</ele>
        <time>2024-09-13T05:10:37+00:00</time>
      </trkpt>
      <trkpt lat="45.45772" lon="2.24128">
        <ele>704</ele>
        <time>2024-09-13T05:10:40+00:00</time>
      </trkpt>
      <trkpt lat="45.45741" lon="2.24147">
        <ele>697.1</ele>
        <time>2024-09-13T05:10:43+00:00</time>
      </trkpt>
      <trkpt lat="45.4569" lon="2.24127">
        <ele>699.3</ele>
        <time>2024-09-13T05:10:46+00:00</time>
      </trkpt>
      <trkpt lat="45.45676" lon="2.24096">
        <ele>703</ele>
        <time>2024-09-13T05:10:49+00:00</time>
      </trkpt>
      <trkpt lat="45.45642" lon="2.2408">
        <ele>701</ele>
        <time>2024-09-13T05:10:52+00:00</time>
      </trkpt>
      <trkpt lat="45.45622" lon="2.24051">
        <ele>700</ele>
        <time>2024-09-13T05:10:55+00:00</time>
      </trkpt>
      <trkpt lat="45.4559" lon="2.24005">
        <ele>699</ele>
        <time>2024-09-13T05:10:58+00:00</time>
      </trkpt>
      <trkpt lat="45.45568" lon="2.23971">
        <ele>699</ele>
        <time>2024-09-13T05:11:01+00:00</time>
      </trkpt>
      <trkpt lat="45.45545" lon="2.23936">
        <ele>694</ele>
        <time>2024-09-13T05:11:04+00:00</time>
      </trkpt>
      <trkpt lat="45.45516" lon="2.23891">
        <ele>690</ele>
        <time>2024-09-13T05:11:07+00:00</time>
      </trkpt>
      <trkpt lat="45.45485" lon="2.23888">
        <ele>691</ele>
        <time>2024-09-13T05:11:10+00:00</time>
      </trkpt>
      <trkpt lat="45.45459" lon="2.23885">
        <ele>692</ele>
        <time>2024-09-13T05:11:13+00:00</time>
      </trkpt>
      <trkpt lat="45.45428" lon="2.23882">
        <ele>692</ele>
        <time>2024-09-13T05:11:16+00:00</time>
      </trkpt>
      <trkpt lat="45.45417" lon="2.23849">
        <ele>691</ele>
        <time>2024-09-13T05:11:19+00:00</time>
      </trkpt>
      <trkpt lat="45.45375" lon="2.23842">
        <ele>691</ele>
        <time>2024-09-13T05:11:22+00:00</time>
      </trkpt>
      <trkpt lat="45.45349" lon="2.23842">
        <ele>693</ele>
        <time>2024-09-13T05:11:25+00:00</time>
      </trkpt>
      <trkpt lat="45.45314" lon="2.23841">
        <ele>694</ele>
        <time>2024-09-13T05:11:28+00:00</time>
      </trkpt>
      <trkpt lat="45.45289" lon="2.2384">
        <ele>695</ele>
        <time>2024-09-13T05:11:31+00:00</time>
      </trkpt>
      <trkpt lat="45.45238" lon="2.23839">
        <ele>696.1</ele>
        <time>2024-09-13T05:11:34+00:00</time>
      </trkpt>
      <trkpt lat="45.45248" lon="2.23796">
        <ele>694.7</ele>
        <time>2024-09-13T05:11:37+00:00</time>
      </trkpt>
      <trkpt lat="45.4525" lon="2.23767">
        <ele>696</ele>
        <time>2024-09-13T05:11:40+00:00</time>
      </trkpt>
      <trkpt lat="45.45236" lon="2.23738">
        <ele>700</ele>
        <time>2024-09-13T05:11:43+00:00</time>
      </trkpt>
      <trkpt lat="45.45222" lon="2.23708">
        <ele>701</ele>
        <time>2024-09-13T05:11:46+00:00</time>
      </trkpt>
      <trkpt lat="45.45207" lon="2.23661">
        <ele>684.6</ele>
        <time>2024-09-13T05:11:49+00:00</time>
      </trkpt>
      <trkpt lat="45.45138" lon="2.23627">
        <ele>680.1</ele>
        <time>2024-09-13T05:11:52+00:00</time>
      </trkpt>
      <trkpt lat="45.45118" lon="2.23609">
        <ele>678.2</ele>
        <time>2024-09-13T05:11:55+00:00</time>
      </trkpt>
      <trkpt lat="45.45102" lon="2.23562">
        <ele>675.4</ele>
        <time>2024-09-13T05:11:58+00:00</time>
      </trkpt>
      <trkpt lat="45.45072" lon="2.2358">
        <ele>674.2</ele>
        <time>2024-09-13T05:12:01+00:00</time>
      </trkpt>
      <trkpt lat="45.45058" lon="2.2361">
        <ele>684</ele>
        <time>2024-09-13T05:12:04+00:00</time>
      </trkpt>
      <trkpt lat="45.45043" lon="2.23661">
        <ele>684</ele>
        <time>2024-09-13T05:12:07+00:00</time>
      </trkpt>
      <trkpt lat="45.45031" lon="2.23694">
        <ele>685</ele>
        <time>2024-09-13T05:12:10+00:00</time>
      </trkpt>
      <trkpt lat="45.45003" lon="2.23727">
        <ele>672.2</ele>
        <time>2024-09-13T05:12:13+00:00</time>
      </trkpt>
      <trkpt lat="45.44903" lon="2.23789">
        <ele>686</ele>
        <time>2024-09-13T05:12:25+00:00</time>
      </trkpt>
      <trkpt lat="45.44864" lon="2.23807">
        <ele>679</ele>
        <time>2024-09-13T05:12:28+00:00</time>
      </trkpt>
      <trkpt lat="45.44834" lon="2.2382">
        <ele>676</ele>
        <time>2024-09-13T05:12:31+00:00</time>
      </trkpt>
      <trkpt lat="45.44803" lon="2.23834">
        <ele>676</ele>
        <time>2024-09-13T05:12:34+00:00</time>
      </trkpt>
      <trkpt lat="45.4477" lon="2.23849">
        <ele>676</ele>
        <time>2024-09-13T05:12:37+00:00</time>
      </trkpt>
      <trkpt lat="45.44742" lon="2.23858">
        <ele>677</ele>
        <time>2024-09-13T05:12:40+00:00</time>
      </trkpt>
      <trkpt lat="45.44708" lon="2.23865">
        <ele>677</ele>
        <time>2024-09-13T05:12:43+00:00</time>
      </trkpt>
      <trkpt lat="45.44674" lon="2.23872">
        <ele>677</ele>
        <time>2024-09-13T05:12:46+00:00</time>
      </trkpt>
      <trkpt lat="45.44648" lon="2.23877">
        <ele>673</ele>
        <time>2024-09-13T05:12:49+00:00</time>
      </trkpt>
      <trkpt lat="45.44619" lon="2.23883">
        <ele>672</ele>
        <time>2024-09-13T05:12:52+00:00</time>
      </trkpt>
      <trkpt lat="45.44584" lon="2.23883">
        <ele>673</ele>
        <time>2024-09-13T05:12:55+00:00</time>
      </trkpt>
      <trkpt lat="45.44549" lon="2.23883">
        <ele>675</ele>
        <time>2024-09-13T05:12:58+00:00</time>
      </trkpt>
      <trkpt lat="45.44522" lon="2.23884">
        <ele>675</ele>
        <time>2024-09-13T05:13:01+00:00</time>
      </trkpt>
      <trkpt lat="45.44485" lon="2.23884">
        <ele>673</ele>
        <time>2024-09-13T05:13:04+00:00</time>
      </trkpt>
      <trkpt lat="45.44439" lon="2.23902">
        <ele>673.4</ele>
        <time>2024-09-13T05:13:07+00:00</time>
      </trkpt>
      <trkpt lat="45.44402" lon="2.23954">
        <ele>666.1</ele>
        <time>2024-09-13T05:13:10+00:00</time>
      </trkpt>
      <trkpt lat="45.44379" lon="2.23981">
        <ele>678</ele>
        <time>2024-09-13T05:13:13+00:00</time>
      </trkpt>
      <trkpt lat="45.4435" lon="2.24018">
        <ele>669.2</ele>
        <time>2024-09-13T05:13:16+00:00</time>
      </trkpt>
      <trkpt lat="45.44308" lon="2.2406">
        <ele>674.3</ele>
        <time>2024-09-13T05:13:19+00:00</time>
      </trkpt>
      <trkpt lat="45.44278" lon="2.24107">
        <ele>674.8</ele>
        <time>2024-09-13T05:13:22+00:00</time>
      </trkpt>
      <trkpt lat="45.44234" lon="2.24148">
        <ele>674.8</ele>
        <time>2024-09-13T05:13:25+00:00</time>
      </trkpt>
      <trkpt lat="45.44203" lon="2.24152">
        <ele>680</ele>
        <time>2024-09-13T05:13:28+00:00</time>
      </trkpt>
      <trkpt lat="45.44173" lon="2.24171">
        <ele>680</ele>
        <time>2024-09-13T05:13:31+00:00</time>
      </trkpt>
      <trkpt lat="45.44134" lon="2.24196">
        <ele>678</ele>
        <time>2024-09-13T05:13:34+00:00</time>
      </trkpt>
      <trkpt lat="45.44113" lon="2.24213">
        <ele>677</ele>
        <time>2024-09-13T05:13:37+00:00</time>
      </trkpt>
      <trkpt lat="45.44092" lon="2.2423">
        <ele>675</ele>
        <time>2024-09-13T05:13:40+00:00</time>
      </trkpt>
      <trkpt lat="45.44122" lon="2.24276">
        <ele>678</ele>
        <time>2024-09-13T05:13:43+00:00</time>
      </trkpt>
      <trkpt lat="45.44147" lon="2.243">
        <ele>681</ele>
        <time>2024-09-13T05:13:46+00:00</time>
      </trkpt>
      <trkpt lat="45.44192" lon="2.24343">
        <ele>689</ele>
        <time>2024-09-13T05:13:49+00:00</time>
      </trkpt>
      <trkpt lat="45.44206" lon="2.24369">
        <ele>689</ele>
        <time>2024-09-13T05:13:52+00:00</time>
      </trkpt>
      <trkpt lat="45.44233" lon="2.24406">
        <ele>689</ele>
        <time>2024-09-13T05:13:55+00:00</time>
      </trkpt>
      <trkpt lat="45.44251" lon="2.24428">
        <ele>682</ele>
        <time>2024-09-13T05:13:58+00:00</time>
      </trkpt>
      <trkpt lat="45.4427" lon="2.2445">
        <ele>682</ele>
        <time>2024-09-13T05:14:01+00:00</time>
      </trkpt>
      <trkpt lat="45.44302" lon="2.24494">
        <ele>678</ele>
        <time>2024-09-13T05:14:04+00:00</time>
      </trkpt>
      <trkpt lat="45.44326" lon="2.24505">
        <ele>673</ele>
        <time>2024-09-13T05:14:07+00:00</time>
      </trkpt>
      <trkpt lat="45.44356" lon="2.24519">
        <ele>674</ele>
        <time>2024-09-13T05:14:10+00:00</time>
      </trkpt>
      <trkpt lat="45.44372" lon="2.24572">
        <ele>671</ele>
        <time>2024-09-13T05:14:13+00:00</time>
      </trkpt>
      <trkpt lat="45.44385" lon="2.2463">
        <ele>669</ele>
        <time>2024-09-13T05:14:16+00:00</time>
      </trkpt>
      <trkpt lat="45.44396" lon="2.24667">
        <ele>669</ele>
        <time>2024-09-13T05:14:19+00:00</time>
      </trkpt>
      <trkpt lat="45.44413" lon="2.24722">
        <ele>666</ele>
        <time>2024-09-13T05:14:22+00:00</time>
      </trkpt>
      <trkpt lat="45.44427" lon="2.24753">
        <ele>663</ele>
        <time>2024-09-13T05:14:25+00:00</time>
      </trkpt>
      <trkpt lat="45.44446" lon="2.24794">
        <ele>662</ele>
        <time>2024-09-13T05:14:28+00:00</time>
      </trkpt>
      <trkpt lat="45.44452" lon="2.24826">
        <ele>658</ele>
        <time>2024-09-13T05:14:31+00:00</time>
      </trkpt>
      <trkpt lat="45.44452" lon="2.24826">
        <ele>658</ele>
        <time>2024-09-13T05:14:34+00:00</time>
      </trkpt>
    </trkseg>
  </trk>
</gpx>